createdAt,value
2023-04-10T00:00:39.436Z,99.90
2023-04-10T00:01:41.316Z,99.90
2023-04-10T00:02:44.921Z,99.90
2023-04-10T00:03:47.991Z,99.90
2023-04-10T00:04:49.684Z,99.90
2023-04-10T00:05:51.300Z,99.90
2023-04-10T00:06:53.185Z,99.90
2023-04-10T00:07:54.647Z,99.90
2023-04-10T00:08:56.209Z,99.90
2023-04-10T00:09:57.639Z,99.90
2023-04-10T00:10:59.366Z,99.90
2023-04-10T00:12:00.827Z,99.90
2023-04-10T00:13:04.680Z,99.90
2023-04-10T00:14:06.241Z,99.90
2023-04-10T00:15:08.479Z,99.90
2023-04-10T00:16:10.943Z,99.90
2023-04-10T00:17:13.105Z,99.90
2023-04-10T00:18:14.777Z,99.90
2023-04-10T00:19:16.692Z,99.90
2023-04-10T00:20:18.183Z,99.90
2023-04-10T00:21:19.571Z,99.90
2023-04-10T00:22:20.983Z,99.90
2023-04-10T00:23:22.408Z,99.90
2023-04-10T00:24:24.138Z,99.90
2023-04-10T00:25:26.710Z,99.90
2023-04-10T00:26:28.388Z,99.90
2023-04-10T00:27:29.966Z,99.90
2023-04-10T00:28:31.669Z,99.90
2023-04-10T00:29:33.154Z,99.90
2023-04-10T00:30:34.711Z,99.90
2023-04-10T00:31:36.228Z,99.90
2023-04-10T00:32:38.219Z,99.90
2023-04-10T00:33:39.711Z,99.90
2023-04-10T00:34:41.152Z,99.90
2023-04-10T00:35:42.974Z,99.90
2023-04-10T00:36:47.098Z,99.90
2023-04-10T00:37:50.288Z,99.90
2023-04-10T00:38:51.883Z,99.90
2023-04-10T00:39:53.725Z,99.90
2023-04-10T00:40:55.305Z,99.90
2023-04-10T00:41:57.639Z,99.90
2023-04-10T00:42:59.192Z,99.90
2023-04-10T00:44:00.757Z,99.90
2023-04-10T00:45:02.322Z,99.90
2023-04-10T00:46:05.539Z,99.90
2023-04-10T00:47:08.115Z,99.90
2023-04-10T00:48:09.706Z,99.90
2023-04-10T00:49:11.788Z,99.90
2023-04-10T00:50:13.602Z,99.90
2023-04-10T00:51:15.447Z,99.90
2023-04-10T00:52:17.635Z,99.90
2023-04-10T00:53:19.117Z,99.90
2023-04-10T00:54:20.953Z,99.90
2023-04-10T00:55:22.424Z,99.90
2023-04-10T00:56:24.868Z,99.90
2023-04-10T00:57:27.108Z,99.90
2023-04-10T00:58:28.712Z,99.90
2023-04-10T00:59:31.478Z,99.90
2023-04-10T01:00:32.914Z,99.90
2023-04-10T01:01:34.469Z,99.90
2023-04-10T01:02:36.485Z,99.90
2023-04-10T01:03:39.829Z,99.90
2023-04-10T01:04:43.116Z,99.90
2023-04-10T01:06:08.526Z,99.90
2023-04-10T01:07:21.539Z,99.90
2023-04-10T01:08:31.762Z,99.90
2023-04-10T01:09:37.414Z,99.90
2023-04-10T01:10:52.631Z,99.90
2023-04-10T01:12:00.288Z,99.90
2023-04-10T01:13:31.508Z,99.90
2023-04-10T01:14:54.436Z,99.90
2023-04-10T01:16:07.438Z,99.90
2023-04-10T01:17:16.400Z,99.90
2023-04-10T01:18:36.560Z,99.90
2023-04-10T01:20:08.242Z,99.90
2023-04-10T01:21:12.058Z,99.90
2023-04-10T01:22:15.363Z,99.90
2023-04-10T01:23:45.586Z,99.90
2023-04-10T01:25:19.796Z,99.90
2023-04-10T01:26:46.014Z,99.90
2023-04-10T01:28:24.605Z,99.90
2023-04-10T01:29:30.500Z,99.90
2023-04-10T01:30:36.998Z,99.90
2023-04-10T01:31:50.405Z,99.90
2023-04-10T01:32:56.061Z,99.90
2023-04-10T01:34:07.310Z,99.90
2023-04-10T01:35:10.887Z,99.90
2023-04-10T01:36:16.275Z,99.90
2023-04-10T01:37:26.146Z,99.90
2023-04-10T01:38:30.518Z,99.90
2023-04-10T01:39:37.062Z,99.90
2023-04-10T01:40:42.231Z,99.90
2023-04-10T01:41:46.436Z,99.90
2023-04-10T01:42:53.254Z,99.90
2023-04-10T01:43:59.056Z,99.90
2023-04-10T01:45:03.996Z,99.90
2023-04-10T01:46:06.007Z,99.90
2023-04-10T01:47:08.365Z,99.90
2023-04-10T01:48:10.796Z,99.90
2023-04-10T01:49:13.917Z,99.90
2023-04-10T01:50:16.245Z,99.90
2023-04-10T01:51:18.265Z,99.90
2023-04-10T01:52:21.546Z,99.90
2023-04-10T01:53:28.860Z,99.90
2023-04-10T01:54:33.634Z,99.90
2023-04-10T01:55:38.230Z,99.90
2023-04-10T01:56:41.968Z,99.90
2023-04-10T01:57:46.790Z,99.90
2023-04-10T01:58:48.571Z,99.90
2023-04-10T01:59:50.801Z,99.90
2023-04-10T02:00:52.221Z,99.90
2023-04-10T02:02:01.467Z,99.90
2023-04-10T02:03:03.079Z,99.90
2023-04-10T02:04:04.789Z,99.90
2023-04-10T02:05:07.001Z,99.90
2023-04-10T02:06:22.249Z,99.90
2023-04-10T02:07:35.625Z,99.90
2023-04-10T02:08:48.116Z,99.90
2023-04-10T02:10:02.368Z,99.90
2023-04-10T02:11:44.377Z,99.90
2023-04-10T02:12:53.612Z,99.90
2023-04-10T02:14:02.243Z,99.90
2023-04-10T02:15:06.510Z,99.90
2023-04-10T02:16:11.532Z,99.90
2023-04-10T02:17:20.592Z,99.90
2023-04-10T02:18:27.162Z,99.90
2023-04-10T02:19:31.206Z,99.90
2023-04-10T02:20:33.345Z,99.90
2023-04-10T02:21:36.198Z,99.90
2023-04-10T02:22:37.781Z,99.90
2023-04-10T02:23:40.327Z,99.90
2023-04-10T02:24:42.115Z,99.90
2023-04-10T02:25:46.350Z,99.90
2023-04-10T02:26:52.826Z,99.90
2023-04-10T02:27:54.385Z,99.90
2023-04-10T02:28:55.938Z,99.90
2023-04-10T02:29:57.638Z,99.90
2023-04-10T02:30:59.168Z,99.90
2023-04-10T02:32:01.476Z,99.90
2023-04-10T02:33:03.638Z,99.90
2023-04-10T02:34:06.024Z,99.90
2023-04-10T02:35:08.072Z,99.90
2023-04-10T02:36:12.783Z,99.90
2023-04-10T02:37:14.356Z,99.90
2023-04-10T02:38:17.421Z,99.90
2023-04-10T02:39:19.398Z,99.90
2023-04-10T02:40:24.324Z,99.90
2023-04-10T02:41:37.374Z,99.90
2023-04-10T02:42:39.453Z,99.90
2023-04-10T02:43:41.693Z,99.90
2023-04-10T02:44:43.252Z,99.90
2023-04-10T02:45:45.442Z,99.90
2023-04-10T02:46:51.666Z,99.90
2023-04-10T02:47:53.580Z,99.90
2023-04-10T02:48:56.148Z,99.90
2023-04-10T02:49:57.851Z,99.90
2023-04-10T02:51:02.957Z,99.90
2023-04-10T02:52:04.599Z,99.90
2023-04-10T02:53:06.030Z,99.90
2023-04-10T02:54:07.437Z,99.90
2023-04-10T02:55:10.525Z,99.90
2023-04-10T02:56:13.975Z,99.90
2023-04-10T02:57:16.399Z,99.90
2023-04-10T02:58:17.816Z,99.90
2023-04-10T02:59:19.423Z,99.90
2023-04-10T03:00:20.853Z,99.90
2023-04-10T03:01:57.760Z,99.90
2023-04-10T03:02:59.631Z,99.90
2023-04-10T03:04:06.300Z,99.90
2023-04-10T03:05:13.277Z,99.90
2023-04-10T03:06:15.861Z,99.90
2023-04-10T03:07:20.444Z,99.90
2023-04-10T03:08:23.846Z,99.90
2023-04-10T03:09:25.271Z,99.90
2023-04-10T03:10:29.166Z,99.90
2023-04-10T03:11:30.695Z,99.90
2023-04-10T03:12:32.269Z,99.90
2023-04-10T03:13:33.624Z,99.90
2023-04-10T03:14:35.635Z,99.90
2023-04-10T03:15:37.927Z,99.90
2023-04-10T03:16:39.632Z,99.90
2023-04-10T03:17:41.876Z,99.90
2023-04-10T03:18:43.575Z,99.90
2023-04-10T03:19:45.911Z,99.90
2023-04-10T03:20:49.005Z,99.90
2023-04-10T03:21:50.720Z,99.90
2023-04-10T03:22:53.137Z,99.90
2023-04-10T03:23:54.967Z,99.90
2023-04-10T03:24:56.890Z,99.90
2023-04-10T03:25:58.734Z,99.90
2023-04-10T03:27:03.798Z,99.90
2023-04-10T03:28:05.702Z,99.90
2023-04-10T03:29:07.476Z,99.90
2023-04-10T03:30:09.687Z,99.90
2023-04-10T03:31:15.446Z,99.90
2023-04-10T03:32:18.898Z,99.90
2023-04-10T03:33:20.696Z,99.90
2023-04-10T03:34:22.421Z,99.90
2023-04-10T03:35:24.067Z,99.90
2023-04-10T03:36:25.643Z,99.90
2023-04-10T03:37:28.572Z,99.90
2023-04-10T03:38:30.238Z,99.90
2023-04-10T03:39:33.620Z,99.90
2023-04-10T03:40:35.828Z,99.90
2023-04-10T03:41:37.903Z,99.90
2023-04-10T03:42:39.383Z,99.90
2023-04-10T03:43:40.847Z,99.90
2023-04-10T03:44:42.919Z,99.90
2023-04-10T03:45:44.629Z,99.90
2023-04-10T03:46:47.534Z,99.90
2023-04-10T03:47:49.194Z,99.90
2023-04-10T03:48:52.784Z,99.90
2023-04-10T03:49:55.515Z,99.90
2023-04-10T03:50:57.396Z,99.90
2023-04-10T03:51:58.970Z,99.90
2023-04-10T03:53:01.365Z,99.90
2023-04-10T03:54:02.759Z,99.90
2023-04-10T03:55:04.696Z,99.90
2023-04-10T03:56:06.595Z,99.90
2023-04-10T03:57:09.206Z,99.90
2023-04-10T03:58:10.631Z,99.90
2023-04-10T03:59:12.218Z,99.90
2023-04-10T04:00:16.925Z,99.90
2023-04-10T04:01:24.330Z,99.90
2023-04-10T04:02:33.606Z,99.90
2023-04-10T04:03:35.975Z,99.90
2023-04-10T04:05:00.439Z,99.90
2023-04-10T04:06:20.209Z,99.90
2023-04-10T04:07:39.371Z,99.90
2023-04-10T04:09:06.589Z,99.90
2023-04-10T04:10:34.575Z,99.90
2023-04-10T04:11:49.577Z,99.90
2023-04-10T04:13:10.987Z,99.90
2023-04-10T04:14:33.259Z,99.90
2023-04-10T04:15:53.460Z,99.90
2023-04-10T04:17:11.849Z,99.90
2023-04-10T04:18:31.896Z,99.90
2023-04-10T04:19:52.409Z,99.90
2023-04-10T04:21:00.702Z,99.90
2023-04-10T04:22:16.037Z,99.90
2023-04-10T04:23:35.974Z,99.90
2023-04-10T04:24:40.457Z,99.90
2023-04-10T04:25:52.825Z,99.90
2023-04-10T04:26:57.589Z,99.90
2023-04-10T04:28:25.158Z,99.90
2023-04-10T04:29:52.513Z,99.90
2023-04-10T04:31:01.084Z,99.90
2023-04-10T04:32:22.580Z,99.90
2023-04-10T04:33:30.338Z,99.90
2023-04-10T04:34:38.166Z,99.90
2023-04-10T04:35:58.270Z,99.90
2023-04-10T04:37:22.746Z,99.90
2023-04-10T04:38:39.222Z,99.90
2023-04-10T04:40:00.238Z,99.90
2023-04-10T04:41:32.624Z,99.90
2023-04-10T04:42:57.445Z,99.90
2023-04-10T04:44:11.705Z,99.90
2023-04-10T04:45:29.594Z,99.90
2023-04-10T04:46:44.596Z,99.90
2023-04-10T04:47:46.822Z,99.90
2023-04-10T04:49:06.941Z,99.90
2023-04-10T04:50:21.325Z,99.90
2023-04-10T04:51:41.482Z,99.90
2023-04-10T04:52:49.156Z,99.90
2023-04-10T04:54:09.208Z,99.90
2023-04-10T04:55:43.234Z,99.90
2023-04-10T04:57:04.980Z,99.90
2023-04-10T04:58:24.865Z,99.90
2023-04-10T04:59:44.486Z,99.90
2023-04-10T05:00:55.159Z,99.90
2023-04-10T05:02:23.230Z,99.90
2023-04-10T05:04:00.106Z,99.90
2023-04-10T05:05:29.852Z,99.90
2023-04-10T05:06:44.824Z,99.90
2023-04-10T05:08:12.251Z,99.90
2023-04-10T05:09:34.287Z,99.90
2023-04-10T05:10:43.139Z,99.90
2023-04-10T05:11:51.333Z,99.90
2023-04-10T05:13:11.598Z,99.90
2023-04-10T05:14:22.472Z,99.90
2023-04-10T05:15:54.747Z,99.90
2023-04-10T05:17:19.277Z,99.90
2023-04-10T05:18:31.117Z,99.90
2023-04-10T05:19:38.657Z,99.90
2023-04-10T05:20:52.078Z,99.90
2023-04-10T05:22:13.758Z,99.90
2023-04-10T05:23:27.536Z,99.90
2023-04-10T05:24:48.989Z,99.90
2023-04-10T05:25:58.057Z,99.90
2023-04-10T05:27:20.820Z,99.90
2023-04-10T05:28:34.063Z,99.90
2023-04-10T05:30:08.538Z,99.90
2023-04-10T05:31:28.864Z,99.90
2023-04-10T05:32:56.275Z,99.90
2023-04-10T05:34:18.219Z,99.90
2023-04-10T05:35:38.308Z,99.90
2023-04-10T05:36:59.235Z,99.90
2023-04-10T05:38:17.688Z,99.90
2023-04-10T05:39:42.080Z,99.90
2023-04-10T05:41:03.614Z,99.90
2023-04-10T05:42:14.019Z,99.90
2023-04-10T05:43:30.090Z,99.90
2023-04-10T05:44:46.665Z,99.90
2023-04-10T05:46:02.289Z,99.90
2023-04-10T05:47:22.196Z,99.90
2023-04-10T05:48:31.174Z,99.90
2023-04-10T05:49:50.852Z,99.90
2023-04-10T05:50:52.838Z,99.90
2023-04-10T05:52:09.069Z,99.90
2023-04-10T05:53:32.440Z,99.90
2023-04-10T05:54:39.702Z,99.90
2023-04-10T05:56:05.956Z,99.90
2023-04-10T05:57:42.615Z,99.90
2023-04-10T05:59:09.963Z,99.90
2023-04-10T06:00:31.651Z,99.90
2023-04-10T06:01:57.686Z,99.90
2023-04-10T06:02:59.461Z,99.90
2023-04-10T06:04:03.183Z,99.90
2023-04-10T06:05:05.435Z,99.90
2023-04-10T06:06:08.485Z,99.90
2023-04-10T06:07:10.406Z,99.90
2023-04-10T06:08:12.057Z,99.90
2023-04-10T06:09:14.228Z,99.90
2023-04-10T06:10:15.950Z,99.90
2023-04-10T06:11:18.018Z,99.90
2023-04-10T06:12:24.702Z,99.90
2023-04-10T06:13:27.536Z,99.90
2023-04-10T06:14:32.681Z,99.90
2023-04-10T06:15:34.432Z,99.90
2023-04-10T06:16:37.015Z,99.90
2023-04-10T06:17:43.822Z,99.90
2023-04-10T06:18:46.538Z,99.90
2023-04-10T06:19:48.013Z,99.90
2023-04-10T06:20:49.415Z,99.90
2023-04-10T06:21:53.158Z,99.90
2023-04-10T06:22:56.219Z,99.90
2023-04-10T06:23:57.739Z,99.90
2023-04-10T06:24:59.223Z,99.90
2023-04-10T06:26:01.307Z,99.90
2023-04-10T06:27:03.107Z,99.90
2023-04-10T06:28:04.705Z,99.90
2023-04-10T06:29:06.156Z,99.90
2023-04-10T06:30:09.389Z,99.90
2023-04-10T06:31:12.684Z,99.90
2023-04-10T06:32:14.099Z,99.90
2023-04-10T06:33:16.285Z,99.90
2023-04-10T06:34:19.241Z,99.90
2023-04-10T06:35:37.819Z,99.90
2023-04-10T06:36:39.397Z,99.90
2023-04-10T06:37:42.207Z,99.90
2023-04-10T06:38:43.750Z,99.90
2023-04-10T06:39:45.789Z,99.90
2023-04-10T06:40:47.301Z,99.90
2023-04-10T06:41:48.728Z,99.90
2023-04-10T06:43:03.240Z,99.90
2023-04-10T06:44:11.976Z,99.90
2023-04-10T06:45:13.566Z,99.90
2023-04-10T06:46:16.173Z,99.90
2023-04-10T06:47:18.288Z,99.90
2023-04-10T06:48:20.363Z,99.90
2023-04-10T06:49:21.936Z,99.90
2023-04-10T06:50:23.575Z,99.90
2023-04-10T06:51:25.198Z,99.90
2023-04-10T06:52:26.889Z,99.90
2023-04-10T06:53:29.104Z,99.90
2023-04-10T06:54:30.569Z,99.90
2023-04-10T06:55:31.908Z,99.90
2023-04-10T06:56:33.284Z,99.90
2023-04-10T06:57:34.606Z,99.90
2023-04-10T06:58:36.288Z,99.90
2023-04-10T06:59:37.684Z,99.90
2023-04-10T07:00:39.055Z,99.90
2023-04-10T07:01:40.743Z,99.90
2023-04-10T07:02:42.190Z,99.90
2023-04-10T07:03:43.602Z,99.90
2023-04-10T07:04:45.582Z,99.90
2023-04-10T07:05:46.982Z,99.90
2023-04-10T07:06:48.738Z,99.90
2023-04-10T07:07:51.230Z,99.90
2023-04-10T07:08:52.944Z,99.90
2023-04-10T07:09:54.540Z,99.90
2023-04-10T07:10:58.310Z,99.90
2023-04-10T07:12:00.589Z,99.90
2023-04-10T07:13:02.204Z,99.90
2023-04-10T07:14:03.835Z,99.90
2023-04-10T07:15:06.198Z,99.90
2023-04-10T07:16:08.985Z,99.90
2023-04-10T07:17:10.402Z,99.90
2023-04-10T07:18:11.986Z,99.90
2023-04-10T07:19:14.088Z,99.90
2023-04-10T07:20:15.474Z,99.90
2023-04-10T07:21:17.686Z,99.90
2023-04-10T07:22:19.060Z,99.90
2023-04-10T07:23:20.753Z,99.90
2023-04-10T07:24:22.161Z,99.90
2023-04-10T07:25:24.089Z,99.90
2023-04-10T07:26:25.944Z,99.90
2023-04-10T07:27:28.259Z,99.90
2023-04-10T07:28:29.638Z,99.90
2023-04-10T07:29:31.487Z,99.90
2023-04-10T07:30:33.164Z,99.90
2023-04-10T07:31:34.689Z,99.90
2023-04-10T07:32:37.471Z,99.90
2023-04-10T07:33:39.316Z,99.90
2023-04-10T07:34:42.185Z,99.90
2023-04-10T07:35:43.600Z,99.90
2023-04-10T07:36:46.093Z,99.90
2023-04-10T07:37:52.279Z,99.90
2023-04-10T07:38:53.911Z,99.90
2023-04-10T07:39:55.559Z,99.90
2023-04-10T07:40:57.806Z,99.90
2023-04-10T07:42:00.161Z,99.90
2023-04-10T07:43:01.630Z,99.90
2023-04-10T07:44:02.991Z,99.90
2023-04-10T07:45:04.979Z,99.90
2023-04-10T07:46:06.831Z,99.90
2023-04-10T07:47:08.773Z,99.90
2023-04-10T07:48:10.380Z,99.90
2023-04-10T07:49:12.346Z,99.90
2023-04-10T07:50:13.833Z,99.90
2023-04-10T07:51:15.586Z,99.90
2023-04-10T07:52:16.980Z,99.90
2023-04-10T07:53:18.384Z,99.90
2023-04-10T07:54:19.780Z,99.90
2023-04-10T07:55:21.221Z,99.90
2023-04-10T07:56:23.158Z,99.90
2023-04-10T07:57:24.643Z,99.90
2023-04-10T07:58:26.008Z,99.90
2023-04-10T07:59:29.327Z,99.90
2023-04-10T08:00:31.244Z,99.90
2023-04-10T08:01:33.589Z,99.90
2023-04-10T08:02:35.410Z,99.90
2023-04-10T08:03:41.531Z,99.90
2023-04-10T08:04:43.809Z,99.90
2023-04-10T08:05:45.691Z,99.90
2023-04-10T08:06:47.054Z,99.90
2023-04-10T08:07:48.478Z,99.90
2023-04-10T08:08:50.844Z,99.90
2023-04-10T08:09:52.853Z,99.90
2023-04-10T08:10:54.759Z,99.90
2023-04-10T08:11:57.558Z,99.90
2023-04-10T08:12:59.193Z,99.90
2023-04-10T08:14:02.448Z,99.90
2023-04-10T08:15:04.150Z,99.90
2023-04-10T08:16:06.296Z,99.90
2023-04-10T08:17:14.408Z,99.90
2023-04-10T08:18:15.936Z,99.90
2023-04-10T08:19:17.286Z,99.90
2023-04-10T08:20:18.699Z,99.90
2023-04-10T08:21:22.064Z,99.90
2023-04-10T08:22:23.449Z,99.90
2023-04-10T08:23:24.857Z,99.90
2023-04-10T08:24:26.524Z,99.90
2023-04-10T08:25:28.135Z,99.90
2023-04-10T08:26:30.171Z,99.90
2023-04-10T08:27:31.708Z,99.90
2023-04-10T08:28:33.290Z,99.90
2023-04-10T08:29:34.852Z,99.90
2023-04-10T08:30:36.441Z,99.90
2023-04-10T08:31:38.553Z,99.90
2023-04-10T08:32:39.952Z,99.90
2023-04-10T08:33:41.622Z,99.90
2023-04-10T08:34:43.072Z,99.90
2023-04-10T08:35:49.125Z,99.90
2023-04-10T08:36:50.556Z,99.90
2023-04-10T08:38:07.830Z,99.90
2023-04-10T08:39:13.322Z,99.90
2023-04-10T08:40:15.716Z,99.90
2023-04-10T08:41:19.197Z,99.90
2023-04-10T08:42:22.250Z,99.90
2023-04-10T08:43:24.108Z,99.90
2023-04-10T08:44:25.482Z,99.90
2023-04-10T08:45:26.925Z,99.90
2023-04-10T08:46:30.862Z,99.90
2023-04-10T08:47:38.373Z,99.90
2023-04-10T08:48:58.821Z,99.90
2023-04-10T08:50:06.101Z,99.90
2023-04-10T08:51:19.497Z,99.90
2023-04-10T08:52:24.484Z,99.90
2023-04-10T08:53:30.939Z,99.90
2023-04-10T08:54:38.702Z,99.90
2023-04-10T08:55:41.561Z,99.90
2023-04-10T08:56:47.080Z,99.90
2023-04-10T08:57:58.033Z,99.90
2023-04-10T08:59:03.853Z,99.90
2023-04-10T09:00:19.986Z,99.90
2023-04-10T09:01:25.688Z,99.90
2023-04-10T09:02:28.791Z,99.90
2023-04-10T09:03:31.223Z,99.90
2023-04-10T09:04:33.642Z,99.90
2023-04-10T09:05:36.663Z,99.90
2023-04-10T09:06:38.293Z,99.90
2023-04-10T09:07:40.087Z,99.90
2023-04-10T09:08:42.104Z,99.90
2023-04-10T09:09:44.637Z,99.90
2023-04-10T09:10:46.282Z,99.90
2023-04-10T09:11:56.382Z,99.90
2023-04-10T09:12:57.813Z,99.90
2023-04-10T09:13:59.256Z,99.90
2023-04-10T09:15:00.948Z,99.90
2023-04-10T09:16:03.806Z,99.90
2023-04-10T09:17:11.412Z,99.90
2023-04-10T09:18:12.798Z,99.90
2023-04-10T09:19:28.945Z,99.90
2023-04-10T09:20:31.940Z,99.90
2023-04-10T09:21:33.635Z,99.90
2023-04-10T09:22:36.358Z,99.90
2023-04-10T09:23:37.902Z,99.90
2023-04-10T09:24:42.428Z,99.90
2023-04-10T09:25:44.141Z,99.90
2023-04-10T09:26:45.731Z,99.90
2023-04-10T09:27:47.335Z,99.90
2023-04-10T09:29:03.274Z,99.90
2023-04-10T09:30:06.570Z,99.90
2023-04-10T09:31:29.707Z,99.90
2023-04-10T09:32:38.960Z,99.90
2023-04-10T09:33:40.608Z,99.90
2023-04-10T09:34:58.477Z,99.90
2023-04-10T09:36:00.940Z,99.90
2023-04-10T09:37:02.631Z,99.90
2023-04-10T09:38:18.353Z,99.90
2023-04-10T09:39:20.696Z,99.90
2023-04-10T09:40:25.813Z,99.90
2023-04-10T09:41:28.394Z,99.90
2023-04-10T09:42:34.003Z,99.90
2023-04-10T09:43:35.949Z,99.90
2023-04-10T09:44:39.796Z,99.90
2023-04-10T09:45:55.106Z,99.90
2023-04-10T09:46:57.258Z,99.70
2023-04-10T09:48:07.451Z,99.70
2023-04-10T09:49:09.420Z,99.20
2023-04-10T09:50:10.936Z,98.60
2023-04-10T09:51:30.263Z,98.80
2023-04-10T09:52:35.275Z,98.60
2023-04-10T09:53:50.362Z,98.10
2023-04-10T09:54:53.287Z,99.10
2023-04-10T09:55:56.192Z,99.00
2023-04-10T09:56:58.112Z,99.20
2023-04-10T09:58:05.572Z,99.40
2023-04-10T09:59:08.271Z,98.90
2023-04-10T10:00:11.287Z,98.50
2023-04-10T10:01:13.038Z,97.80
2023-04-10T10:02:16.384Z,97.50
2023-04-10T10:03:21.157Z,98.30
2023-04-10T10:04:23.773Z,97.60
2023-04-10T10:05:30.445Z,97.40
2023-04-10T10:06:32.848Z,97.70
2023-04-10T10:07:34.939Z,97.40
2023-04-10T10:08:36.916Z,97.50
2023-04-10T10:09:38.669Z,97.30
2023-04-10T10:10:58.646Z,97.20
2023-04-10T10:12:01.090Z,97.20
2023-04-10T10:13:04.012Z,97.90
2023-04-10T10:14:17.205Z,98.50
2023-04-10T10:15:21.690Z,97.40
2023-04-10T10:16:32.384Z,97.80
2023-04-10T10:17:39.579Z,97.20
2023-04-10T10:18:56.650Z,97.30
2023-04-10T10:20:06.579Z,97.20
2023-04-10T10:21:10.229Z,97.40
2023-04-10T10:22:13.084Z,97.50
2023-04-10T10:23:15.985Z,97.90
2023-04-10T10:24:20.580Z,96.90
2023-04-10T10:25:23.641Z,96.10
2023-04-10T10:26:25.919Z,96.40
2023-04-10T10:27:31.103Z,96.00
2023-04-10T10:28:34.516Z,97.10
2023-04-10T10:29:39.894Z,97.70
2023-04-10T10:30:42.490Z,96.10
2023-04-10T10:31:46.124Z,95.70
2023-04-10T10:32:49.750Z,95.90
2023-04-10T10:33:54.504Z,96.40
2023-04-10T10:34:57.624Z,97.20
2023-04-10T10:36:00.744Z,97.10
2023-04-10T10:37:04.016Z,97.40
2023-04-10T10:38:06.433Z,97.10
2023-04-10T10:39:35.746Z,97.20
2023-04-10T10:40:39.993Z,96.80
2023-04-10T10:41:49.600Z,97.00
2023-04-10T10:43:00.743Z,97.30
2023-04-10T10:44:10.862Z,96.80
2023-04-10T10:45:22.871Z,96.80
2023-04-10T10:46:27.301Z,97.30
2023-04-10T10:47:30.964Z,97.20
2023-04-10T10:48:32.376Z,97.20
2023-04-10T10:50:00.363Z,96.90
2023-04-10T10:51:03.544Z,97.50
2023-04-10T10:52:05.100Z,97.00
2023-04-10T10:53:06.684Z,98.00
2023-04-10T10:54:27.907Z,97.90
2023-04-10T10:55:39.785Z,97.90
2023-04-10T10:56:41.139Z,97.20
2023-04-10T10:57:47.749Z,96.10
2023-04-10T10:58:55.930Z,96.70
2023-04-10T10:59:58.050Z,97.50
2023-04-10T11:00:59.527Z,97.90
2023-04-10T11:02:20.044Z,97.40
2023-04-10T11:03:23.410Z,97.00
2023-04-10T11:04:47.567Z,97.30
2023-04-10T11:05:55.930Z,96.60
2023-04-10T11:06:57.350Z,97.50
2023-04-10T11:07:58.704Z,96.10
2023-04-10T11:09:00.325Z,97.50
2023-04-10T11:10:01.838Z,97.40
2023-04-10T11:11:07.783Z,97.70
2023-04-10T11:12:09.466Z,97.60
2023-04-10T11:13:18.440Z,97.70
2023-04-10T11:14:21.334Z,96.90
2023-04-10T11:15:23.736Z,97.10
2023-04-10T11:16:43.977Z,97.10
2023-04-10T11:17:54.309Z,97.60
2023-04-10T11:19:14.826Z,97.90
2023-04-10T11:20:20.785Z,97.20
2023-04-10T11:21:23.635Z,96.90
2023-04-10T11:22:25.309Z,97.40
2023-04-10T11:23:26.737Z,98.20
2023-04-10T11:24:29.137Z,97.90
2023-04-10T11:25:53.859Z,98.20
2023-04-10T11:26:56.221Z,98.20
2023-04-10T11:27:57.768Z,98.40
2023-04-10T11:28:59.806Z,98.20
2023-04-10T11:30:01.235Z,98.20
2023-04-10T11:31:22.598Z,98.30
2023-04-10T11:32:24.722Z,97.90
2023-04-10T11:33:26.187Z,97.70
2023-04-10T11:34:28.554Z,97.90
2023-04-10T11:35:31.630Z,97.70
2023-04-10T11:36:35.080Z,97.50
2023-04-10T11:37:36.882Z,97.10
2023-04-10T11:38:38.340Z,96.90
2023-04-10T11:39:39.745Z,98.00
2023-04-10T11:40:54.854Z,98.00
2023-04-10T11:41:57.708Z,97.50
2023-04-10T11:43:14.949Z,97.30
2023-04-10T11:44:28.488Z,97.10
2023-04-10T11:45:30.015Z,96.70
2023-04-10T11:46:32.013Z,97.20
2023-04-10T11:47:34.396Z,97.10
2023-04-10T11:48:37.628Z,97.80
2023-04-10T11:49:39.257Z,96.90
2023-04-10T11:50:40.817Z,96.80
2023-04-10T11:51:46.437Z,97.20
2023-04-10T11:52:51.272Z,97.60
2023-04-10T11:54:09.972Z,96.90
2023-04-10T11:55:12.088Z,96.70
2023-04-10T11:56:17.739Z,96.50
2023-04-10T11:57:19.151Z,96.60
2023-04-10T11:58:28.828Z,96.40
2023-04-10T11:59:32.038Z,95.60
2023-04-10T12:00:33.675Z,95.40
2023-04-10T12:01:35.563Z,95.70
2023-04-10T12:02:51.414Z,96.30
2023-04-10T12:03:53.192Z,95.30
2023-04-10T12:04:59.264Z,95.60
2023-04-10T12:06:00.890Z,95.70
2023-04-10T12:07:03.527Z,95.90
2023-04-10T12:08:06.251Z,95.10
2023-04-10T12:09:14.645Z,95.20
2023-04-10T12:10:16.691Z,95.00
2023-04-10T12:11:23.066Z,95.10
2023-04-10T12:12:37.973Z,95.60
2023-04-10T12:13:40.143Z,95.70
2023-04-10T12:14:42.988Z,95.40
2023-04-10T12:15:44.358Z,95.40
2023-04-10T12:16:46.919Z,94.40
2023-04-10T12:17:49.000Z,94.50
2023-04-10T12:18:51.178Z,94.20
2023-04-10T12:19:53.141Z,94.20
2023-04-10T12:20:57.083Z,94.70
2023-04-10T12:21:59.807Z,94.90
2023-04-10T12:23:03.134Z,94.60
2023-04-10T12:24:06.009Z,93.90
2023-04-10T12:25:12.252Z,93.40
2023-04-10T12:26:18.696Z,93.50
2023-04-10T12:27:22.748Z,92.50
2023-04-10T12:28:24.212Z,93.30
2023-04-10T12:29:27.822Z,93.60
2023-04-10T12:30:29.373Z,92.90
2023-04-10T12:31:36.539Z,92.70
2023-04-10T12:32:38.092Z,92.80
2023-04-10T12:33:40.104Z,93.10
2023-04-10T12:34:41.836Z,92.70
2023-04-10T12:35:43.409Z,92.60
2023-04-10T12:36:53.945Z,92.00
2023-04-10T12:37:55.413Z,92.50
2023-04-10T12:38:58.921Z,91.70
2023-04-10T12:40:07.554Z,91.50
2023-04-10T12:41:11.184Z,91.50
2023-04-10T12:42:16.970Z,91.10
2023-04-10T12:43:35.424Z,91.30
2023-04-10T12:44:56.861Z,91.90
2023-04-10T12:45:58.592Z,91.60
2023-04-10T12:47:01.810Z,91.70
2023-04-10T12:48:03.664Z,91.10
2023-04-10T12:49:13.549Z,90.60
2023-04-10T12:50:16.829Z,91.00
2023-04-10T12:51:18.315Z,90.80
2023-04-10T12:52:23.391Z,90.90
2023-04-10T12:53:26.181Z,91.30
2023-04-10T12:54:32.190Z,90.70
2023-04-10T12:55:33.757Z,90.60
2023-04-10T12:56:47.566Z,90.10
2023-04-10T12:57:49.168Z,90.40
2023-04-10T12:59:07.194Z,91.20
2023-04-10T13:00:13.992Z,91.30
2023-04-10T13:01:15.389Z,92.30
2023-04-10T13:02:18.788Z,92.20
2023-04-10T13:03:21.005Z,90.10
2023-04-10T13:04:23.853Z,88.50
2023-04-10T13:05:26.351Z,89.90
2023-04-10T13:06:28.199Z,90.00
2023-04-10T13:07:29.915Z,89.50
2023-04-10T13:08:32.569Z,89.00
2023-04-10T13:09:34.340Z,90.00
2023-04-10T13:10:38.261Z,90.00
2023-04-10T13:11:40.624Z,86.60
2023-04-10T13:12:43.585Z,88.00
2023-04-10T13:13:44.976Z,86.60
2023-04-10T13:14:46.718Z,84.60
2023-04-10T13:15:49.130Z,84.60
2023-04-10T13:16:50.522Z,81.70
2023-04-10T13:17:51.943Z,82.20
2023-04-10T13:18:53.907Z,83.20
2023-04-10T13:19:55.889Z,76.90
2023-04-10T13:20:57.751Z,76.50
2023-04-10T13:22:01.236Z,76.00
2023-04-10T13:23:03.794Z,75.30
2023-04-10T13:24:06.018Z,75.90
2023-04-10T13:25:07.716Z,76.90
2023-04-10T13:26:09.060Z,75.20
2023-04-10T13:27:10.777Z,73.20
2023-04-10T13:28:12.468Z,74.40
2023-04-10T13:29:14.428Z,71.80
2023-04-10T13:30:16.055Z,70.70
2023-04-10T13:31:17.570Z,70.50
2023-04-10T13:32:19.004Z,73.70
2023-04-10T13:33:20.772Z,74.30
2023-04-10T13:34:22.203Z,73.70
2023-04-10T13:35:23.649Z,69.40
2023-04-10T13:36:27.116Z,65.40
2023-04-10T13:37:28.565Z,66.20
2023-04-10T13:38:30.517Z,66.50
2023-04-10T13:39:32.095Z,64.30
2023-04-10T13:40:33.566Z,68.10
2023-04-10T13:41:35.307Z,66.10
2023-04-10T13:42:39.347Z,66.40
2023-04-10T13:43:42.047Z,65.10
2023-04-10T13:44:43.532Z,63.40
2023-04-10T13:45:45.056Z,62.60
2023-04-10T13:46:46.598Z,61.10
2023-04-10T13:47:48.671Z,61.60
2023-04-10T13:48:50.246Z,61.40
2023-04-10T13:49:51.623Z,62.60
2023-04-10T13:50:53.369Z,64.80
2023-04-10T13:51:54.738Z,62.80
2023-04-10T13:52:56.117Z,63.20
2023-04-10T13:53:58.008Z,63.70
2023-04-10T13:54:59.446Z,65.20
2023-04-10T13:56:01.329Z,65.80
2023-04-10T13:57:03.075Z,65.10
2023-04-10T13:58:04.970Z,62.70
2023-04-10T13:59:06.482Z,63.70
2023-04-10T14:00:08.507Z,63.00
2023-04-10T14:01:17.339Z,63.70
2023-04-10T14:02:18.857Z,65.00
2023-04-10T14:03:20.619Z,65.90
2023-04-10T14:04:22.174Z,65.30
2023-04-10T14:05:23.780Z,65.80
2023-04-10T14:06:25.318Z,66.60
2023-04-10T14:07:26.993Z,68.60
2023-04-10T14:08:28.677Z,68.00
2023-04-10T14:09:30.215Z,68.00
2023-04-10T14:10:31.749Z,68.90